createdAt,value
2023-02-15T00:00:20.343Z,102559.88
2023-02-15T00:02:48.888Z,102563.47
2023-02-15T00:05:17.570Z,102565.19
2023-02-15T00:07:46.098Z,102552.81
2023-02-15T00:10:15.092Z,102554.72
2023-02-15T00:12:45.614Z,102546.97
2023-02-15T00:15:14.175Z,102543.53
2023-02-15T00:17:42.707Z,102545.63
2023-02-15T00:20:11.945Z,102546.63
2023-02-15T00:22:40.574Z,102543.38
2023-02-15T00:25:09.339Z,102544.56
2023-02-15T00:27:37.861Z,102545.47
2023-02-15T00:30:09.059Z,102541.47
2023-02-15T00:32:37.605Z,102540.09
2023-02-15T00:35:07.857Z,102540.78
2023-02-15T00:37:36.407Z,102537.00
2023-02-15T00:40:05.720Z,102538.22
2023-02-15T00:42:34.253Z,102534.59
2023-02-15T00:45:02.760Z,102534.78
2023-02-15T00:47:32.636Z,102531.16
2023-02-15T00:50:01.108Z,102531.16
2023-02-15T00:52:29.639Z,102529.63
2023-02-15T00:54:58.144Z,102525.50
2023-02-15T00:57:26.774Z,102531.19
2023-02-15T00:59:55.310Z,102521.38
2023-02-15T01:02:23.856Z,102523.44
2023-02-15T01:04:53.715Z,102525.50
2023-02-15T01:07:22.289Z,102530.50
2023-02-15T01:09:50.853Z,102526.72
2023-02-15T01:12:19.411Z,102525.50
2023-02-15T01:14:48.014Z,102531.34
2023-02-15T01:17:16.582Z,102533.75
2023-02-15T01:19:45.431Z,102530.47
2023-02-15T01:22:15.347Z,102535.47
2023-02-15T01:24:43.913Z,102528.94
2023-02-15T01:27:12.526Z,102526.19
2023-02-15T01:29:41.101Z,102522.44
2023-02-15T01:32:09.819Z,102519.28
2023-02-15T01:34:38.539Z,102519.00
2023-02-15T01:37:07.232Z,102522.75
2023-02-15T01:39:37.190Z,102517.94
2023-02-15T01:42:05.832Z,102515.53
2023-02-15T01:44:52.653Z,102505.09
2023-02-15T01:50:03.732Z,102506.78
2023-02-15T01:52:32.678Z,102510.19
2023-02-15T01:55:03.605Z,102506.44
2023-02-15T01:57:32.499Z,102503.69
2023-02-15T02:00:04.475Z,102509.19
2023-02-15T02:02:33.468Z,102502.16
2023-02-15T02:05:07.409Z,102489.28
2023-02-15T02:07:40.403Z,102494.25
2023-02-15T02:10:15.801Z,102487.03
2023-02-15T02:12:47.471Z,102483.63
2023-02-15T02:15:17.112Z,102485.50
2023-02-15T02:17:57.270Z,102481.03
2023-02-15T02:21:00.501Z,102482.56
2023-02-15T02:23:45.482Z,102477.25
2023-02-15T02:27:04.854Z,102471.78
2023-02-15T02:30:18.001Z,102467.44
2023-02-15T02:33:16.449Z,102459.56
2023-02-15T02:35:51.450Z,102465.91
2023-02-15T02:38:27.731Z,102458.69
2023-02-15T02:41:06.061Z,102466.09
2023-02-15T02:43:42.483Z,102458.88
2023-02-15T02:46:19.081Z,102452.03
2023-02-15T02:48:50.486Z,102458.38
2023-02-15T02:51:22.472Z,102452.72
2023-02-15T02:53:56.540Z,102440.34
2023-02-15T02:56:29.890Z,102441.72
2023-02-15T02:59:04.582Z,102435.38
2023-02-15T03:01:40.079Z,102428.66
2023-02-15T03:04:15.715Z,102431.59
2023-02-15T03:06:50.488Z,102432.25
2023-02-15T03:09:24.983Z,102425.03
2023-02-15T03:11:54.378Z,102428.47
2023-02-15T03:14:23.206Z,102431.06
2023-02-15T03:16:53.789Z,102429.34
2023-02-15T03:19:29.167Z,102421.25
2023-02-15T03:22:10.367Z,102424.53
2023-02-15T03:24:43.025Z,102425.56
2023-02-15T03:27:18.620Z,102422.97
2023-02-15T03:29:49.390Z,102421.81
2023-02-15T03:32:19.314Z,102417.69
2023-02-15T03:34:49.450Z,102430.38
2023-02-15T03:37:27.636Z,102424.56
2023-02-15T03:40:20.866Z,102426.06
2023-02-15T03:43:00.761Z,102420.25
2023-02-15T03:45:33.048Z,102424.91
2023-02-15T03:48:03.951Z,102415.28
2023-02-15T03:50:55.879Z,102414.91
2023-02-15T03:53:26.389Z,102421.44
2023-02-15T03:55:57.722Z,102418.72
2023-02-15T03:58:43.808Z,102414.22
2023-02-15T04:01:36.064Z,102418.00
2023-02-15T04:04:11.265Z,102419.03
2023-02-15T04:06:41.201Z,102416.16
2023-02-15T04:09:26.936Z,102413.06
2023-02-15T04:11:55.504Z,102412.16
2023-02-15T04:14:41.329Z,102406.69
2023-02-15T04:17:11.036Z,102405.66
2023-02-15T04:19:57.178Z,102409.09
2023-02-15T04:22:44.683Z,102412.88
2023-02-15T04:25:13.601Z,102405.66
2023-02-15T04:27:44.039Z,102414.56
2023-02-15T04:30:14.269Z,102408.75
2023-02-15T04:32:42.991Z,102412.19
2023-02-15T04:35:12.300Z,102412.53
2023-02-15T04:37:43.179Z,102410.66
2023-02-15T04:40:15.578Z,102407.22
2023-02-15T04:42:45.466Z,102413.72
2023-02-15T04:45:14.062Z,102402.91
2023-02-15T04:47:43.122Z,102404.28
2023-02-15T04:50:12.606Z,102406.72
2023-02-15T04:52:42.624Z,102400.66
2023-02-15T04:55:11.192Z,102400.19
2023-02-15T04:57:39.864Z,102397.59
2023-02-15T05:00:10.634Z,102389.34
2023-02-15T05:02:39.208Z,102393.97
2023-02-15T05:05:08.269Z,102400.19
2023-02-15T05:07:36.922Z,102396.56
2023-02-15T05:10:07.863Z,102401.88
2023-02-15T05:12:36.478Z,102388.84
2023-02-15T05:15:05.228Z,102389.00
2023-02-15T05:17:33.778Z,102389.53
2023-02-15T05:20:02.360Z,102385.59
2023-02-15T05:22:30.950Z,102383.00
2023-02-15T05:25:16.953Z,102377.50
2023-02-15T05:28:05.309Z,102373.06
2023-02-15T05:30:34.342Z,102376.66
2023-02-15T05:33:03.016Z,102377.66
2023-02-15T05:35:31.570Z,102374.41
2023-02-15T05:38:00.146Z,102369.44
2023-02-15T05:40:28.811Z,102364.31
2023-02-15T05:42:58.831Z,102369.97
2023-02-15T05:45:27.678Z,102365.84
2023-02-15T05:47:56.497Z,102363.44
2023-02-15T05:50:25.123Z,102358.13
2023-02-15T05:52:53.765Z,102356.41
2023-02-15T05:55:22.417Z,102358.63
2023-02-15T05:57:51.569Z,102357.09
2023-02-15T06:00:21.989Z,102361.22
2023-02-15T06:02:50.551Z,102361.91
2023-02-15T06:05:19.402Z,102365.66
2023-02-15T06:07:48.248Z,102374.75
2023-02-15T06:10:17.038Z,102375.25
2023-02-15T06:12:46.732Z,102364.81
2023-02-15T06:15:15.486Z,102360.50
2023-02-15T06:17:45.631Z,102371.81
2023-02-15T06:20:15.009Z,102369.78
2023-02-15T06:22:43.616Z,102377.50
2023-02-15T06:25:12.286Z,102369.44
2023-02-15T06:27:43.199Z,102372.19
2023-02-15T06:30:13.668Z,102369.50
2023-02-15T06:32:42.607Z,102372.59
2023-02-15T06:35:12.598Z,102374.19
2023-02-15T06:37:41.373Z,102375.56
2023-02-15T06:40:11.209Z,102375.34
2023-02-15T06:42:39.812Z,102383.41
2023-02-15T06:45:08.917Z,102385.75
2023-02-15T06:47:37.598Z,102385.09
2023-02-15T06:50:07.519Z,102385.97
2023-02-15T06:52:37.477Z,102386.34
2023-02-15T06:55:06.560Z,102380.88
2023-02-15T06:57:35.353Z,102386.34
2023-02-15T07:00:05.902Z,102382.50
2023-02-15T07:02:34.621Z,102387.19
2023-02-15T07:05:03.779Z,102385.28
2023-02-15T07:07:32.406Z,102378.50
2023-02-15T07:10:02.300Z,102382.78
2023-02-15T07:12:46.717Z,102374.78
2023-02-15T07:15:18.435Z,102373.19
2023-02-15T07:17:47.029Z,102381.47
2023-02-15T07:20:17.705Z,102374.69
2023-02-15T07:22:46.629Z,102376.31
2023-02-15T07:25:17.104Z,102365.22
2023-02-15T07:27:46.032Z,102367.91
2023-02-15T07:30:18.427Z,102350.06
2023-02-15T07:33:05.685Z,102358.78
2023-02-15T07:35:34.633Z,102354.50
2023-02-15T07:38:03.482Z,102354.19
2023-02-15T07:40:33.424Z,102347.78
2023-02-15T07:43:01.988Z,102342.59
2023-02-15T07:45:30.642Z,102337.63
2023-02-15T07:47:59.178Z,102339.06
2023-02-15T07:50:27.753Z,102337.19
2023-02-15T07:52:56.308Z,102332.28
2023-02-15T07:55:25.709Z,102330.53
2023-02-15T07:57:55.937Z,102332.41
2023-02-15T08:00:26.052Z,102329.09
2023-02-15T08:03:11.096Z,102326.66
2023-02-15T08:05:39.942Z,102328.13
2023-02-15T08:08:08.921Z,102323.94
2023-02-15T08:10:56.074Z,102323.78
2023-02-15T08:13:26.022Z,102323.03
2023-02-15T08:15:54.773Z,102323.34
2023-02-15T08:18:23.353Z,102325.06
2023-02-15T08:20:52.385Z,102316.72
2023-02-15T08:23:20.933Z,102316.78
2023-02-15T08:25:49.511Z,102319.06
2023-02-15T08:28:18.041Z,102316.72
2023-02-15T08:30:47.984Z,102307.94
2023-02-15T08:33:18.916Z,102305.97
2023-02-15T08:35:48.036Z,102304.56
2023-02-15T08:38:16.767Z,102300.25
2023-02-15T08:40:45.313Z,102303.75
2023-02-15T08:43:13.866Z,102297.78
2023-02-15T08:45:42.491Z,102300.50
2023-02-15T08:48:12.397Z,102300.97
2023-02-15T08:50:40.992Z,102300.88
2023-02-15T08:53:09.577Z,102295.69
2023-02-15T08:55:38.139Z,102292.22
2023-02-15T08:58:06.708Z,102292.97
2023-02-15T09:00:35.307Z,102287.09
2023-02-15T09:03:03.857Z,102285.53
2023-02-15T09:05:33.796Z,102285.38
2023-02-15T09:08:02.348Z,102285.34
2023-02-15T09:10:30.940Z,102281.50
2023-02-15T09:12:59.530Z,102288.47
2023-02-15T09:15:28.102Z,102292.91
2023-02-15T09:17:56.699Z,102283.63
2023-02-15T09:20:25.393Z,102291.41
2023-02-15T09:22:58.527Z,102287.03
2023-02-15T09:25:28.568Z,102276.72
2023-02-15T09:27:57.459Z,102290.03
2023-02-15T09:30:26.163Z,102297.63
2023-02-15T09:32:54.824Z,102295.63
2023-02-15T09:35:23.365Z,102300.22
2023-02-15T09:37:51.956Z,102288.84
2023-02-15T09:40:22.229Z,102292.13
2023-02-15T09:43:31.253Z,102297.84
2023-02-15T09:46:20.819Z,102291.28
2023-02-15T09:48:56.042Z,102288.53
2023-02-15T09:52:00.176Z,102281.22
2023-02-15T09:54:45.313Z,102290.97
2023-02-15T09:57:25.675Z,102281.59
2023-02-15T10:00:05.180Z,102291.81
2023-02-15T10:02:50.968Z,102284.97
2023-02-15T10:05:34.193Z,102298.31
2023-02-15T10:08:26.721Z,102290.03
2023-02-15T10:11:26.275Z,102294.03
2023-02-15T10:14:11.378Z,102287.97
2023-02-15T10:16:48.446Z,102289.28
2023-02-15T10:19:28.550Z,102287.66
2023-02-15T10:22:08.982Z,102288.19
2023-02-15T10:25:02.811Z,102285.94
2023-02-15T10:27:35.666Z,102283.31
2023-02-15T10:30:11.790Z,102284.47
2023-02-15T10:32:48.951Z,102282.88
2023-02-15T10:35:27.415Z,102268.25
2023-02-15T10:38:21.596Z,102281.16
2023-02-15T10:41:02.794Z,102276.19
2023-02-15T10:44:09.831Z,102271.06
2023-02-15T10:46:57.961Z,102268.44
2023-02-15T10:49:44.471Z,102272.91
2023-02-15T10:52:30.368Z,102271.00
2023-02-15T10:55:07.206Z,102271.84
2023-02-15T10:57:45.031Z,102271.69
2023-02-15T11:00:21.356Z,102274.09
2023-02-15T11:03:09.283Z,102271.34
2023-02-15T11:05:50.185Z,102254.88
2023-02-15T11:08:20.128Z,102261.28
2023-02-15T11:10:53.637Z,102257.13
2023-02-15T11:13:26.499Z,102265.63
2023-02-15T11:15:58.903Z,102258.03
2023-02-15T11:18:34.831Z,102263.00
2023-02-15T11:21:09.031Z,102267.69
2023-02-15T11:23:42.735Z,102270.44
2023-02-15T11:26:18.094Z,102268.72
2023-02-15T11:28:53.210Z,102261.16
2023-02-15T11:31:25.164Z,102260.66
2023-02-15T11:33:59.241Z,102256.50
2023-02-15T11:36:31.230Z,102241.66
2023-02-15T11:39:04.765Z,102253.31
2023-02-15T11:41:39.720Z,102252.53
2023-02-15T11:44:16.269Z,102238.84
2023-02-15T11:46:45.224Z,102241.47
2023-02-15T11:49:26.280Z,102230.34
2023-02-15T11:51:55.986Z,102226.88
2023-02-15T11:54:30.271Z,102226.78
2023-02-15T11:57:01.831Z,102217.25
2023-02-15T11:59:35.253Z,102210.13
2023-02-15T12:02:03.824Z,102205.81
2023-02-15T12:04:40.449Z,102212.56
2023-02-15T12:07:18.908Z,102202.94
2023-02-15T12:09:51.560Z,102202.84
2023-02-15T12:12:25.131Z,102193.47
2023-02-15T12:14:55.842Z,102181.13
2023-02-15T12:17:28.260Z,102175.81
2023-02-15T12:19:59.840Z,102178.09
2023-02-15T12:22:31.470Z,102175.75
2023-02-15T12:25:03.381Z,102169.28
2023-02-15T12:27:35.568Z,102172.00
2023-02-15T12:30:09.584Z,102161.94
2023-02-15T12:32:50.389Z,102170.38
2023-02-15T12:35:29.448Z,102177.28
2023-02-15T12:38:02.004Z,102175.81
2023-02-15T12:40:31.802Z,102170.91
2023-02-15T12:43:00.560Z,102172.41
2023-02-15T12:45:31.219Z,102158.56
2023-02-15T12:48:26.651Z,102154.25
2023-02-15T12:51:11.622Z,102154.03
2023-02-15T12:53:40.473Z,102151.81
2023-02-15T12:56:11.431Z,102157.03
2023-02-15T12:58:41.936Z,102151.47
2023-02-15T13:01:16.698Z,102148.03
2023-02-15T13:04:00.229Z,102143.94
2023-02-15T13:06:33.147Z,102148.50
2023-02-15T13:09:11.182Z,102139.66
2023-02-15T13:11:40.922Z,102134.38
2023-02-15T13:14:22.859Z,102127.69
2023-02-15T13:16:55.393Z,102123.34
2023-02-15T13:19:33.647Z,102115.22
2023-02-15T13:22:08.535Z,102120.19
2023-02-15T13:24:41.384Z,102110.09
2023-02-15T13:27:16.438Z,102105.00
2023-02-15T13:29:48.914Z,102103.44
2023-02-15T13:32:28.179Z,102095.22
2023-02-15T13:35:00.127Z,102101.19
2023-02-15T13:37:52.830Z,102104.97
2023-02-15T13:40:26.669Z,102099.72
2023-02-15T13:43:00.676Z,102093.56
2023-02-15T13:45:40.684Z,102088.56
2023-02-15T13:48:21.052Z,102085.31
2023-02-15T13:51:09.573Z,102082.78
2023-02-15T13:53:57.044Z,102077.44
2023-02-15T13:56:35.538Z,102083.13
2023-02-15T13:59:22.689Z,102077.69
2023-02-15T14:01:59.639Z,102084.31
2023-02-15T14:04:56.995Z,102069.44
2023-02-15T14:07:46.715Z,102078.09
2023-02-15T14:10:37.102Z,102067.56
2023-02-15T14:13:57.764Z,102077.16
2023-02-15T14:16:35.670Z,102075.00
2023-02-15T14:19:13.621Z,102073.94
2023-02-15T14:21:49.741Z,102077.00
2023-02-15T14:24:31.500Z,102078.34
2023-02-15T14:27:15.564Z,102072.72
2023-02-15T14:29:53.088Z,102070.97
2023-02-15T14:32:28.883Z,102057.44
2023-02-15T14:35:00.474Z,102060.25
2023-02-15T14:37:41.995Z,102058.81
2023-02-15T14:40:36.646Z,102055.63
2023-02-15T14:43:14.041Z,102053.47
2023-02-15T14:45:58.496Z,102063.44
2023-02-15T14:48:32.374Z,102061.72
2023-02-15T14:51:01.698Z,102060.19
2023-02-15T14:53:40.831Z,102058.38
2023-02-15T14:56:22.349Z,102047.78
2023-02-15T14:59:15.424Z,102045.81
2023-02-15T15:01:52.631Z,102046.50
2023-02-15T15:04:29.509Z,102051.66
2023-02-15T15:07:11.275Z,102047.13
2023-02-15T15:09:42.498Z,102045.72
2023-02-15T15:12:40.071Z,102050.31
2023-02-15T15:15:15.707Z,102050.72
2023-02-15T15:18:01.973Z,102047.66
2023-02-15T15:20:51.258Z,102046.09
2023-02-15T15:23:45.262Z,102044.53
2023-02-15T15:26:34.232Z,102041.81
2023-02-15T15:29:03.833Z,102050.50
2023-02-15T15:31:45.980Z,102055.03
2023-02-15T15:34:47.029Z,102049.75
2023-02-15T15:38:00.801Z,102055.66
2023-02-15T15:40:55.203Z,102054.13
2023-02-15T15:43:51.161Z,102053.06
2023-02-15T15:46:59.474Z,102047.16
2023-02-15T15:49:33.468Z,102048.34
2023-02-15T15:52:04.552Z,102043.88
2023-02-15T15:54:33.201Z,102043.16
2023-02-15T15:57:05.555Z,102052.28
2023-02-15T15:59:36.569Z,102052.28
2023-02-15T16:02:14.067Z,102056.09
2023-02-15T16:04:42.623Z,102056.25
2023-02-15T16:07:27.514Z,102047.69
2023-02-15T16:10:01.276Z,102051.22
2023-02-15T16:12:32.523Z,102050.19
2023-02-15T16:15:06.633Z,102052.06
2023-02-15T16:17:36.638Z,102041.25
2023-02-15T16:20:09.919Z,102043.34
2023-02-15T16:22:40.550Z,102039.75
2023-02-15T16:25:31.801Z,102034.63
2023-02-15T16:28:08.119Z,102037.59
2023-02-15T16:30:38.408Z,102043.09
2023-02-15T16:33:10.910Z,102056.44
2023-02-15T16:35:41.091Z,102048.34
2023-02-15T16:38:12.825Z,102044.75
2023-02-15T16:40:53.376Z,102034.94
2023-02-15T16:43:28.685Z,102041.47
2023-02-15T16:46:05.782Z,102041.22
2023-02-15T16:48:41.581Z,102047.44
2023-02-15T16:51:11.001Z,102048.22
2023-02-15T16:53:41.696Z,102052.41
2023-02-15T16:56:10.484Z,102051.56
2023-02-15T16:58:43.553Z,102051.34
2023-02-15T17:01:15.489Z,102046.38
2023-02-15T17:03:50.481Z,102057.22
2023-02-15T17:06:26.764Z,102059.16
2023-02-15T17:09:04.651Z,102066.66
2023-02-15T17:11:38.067Z,102060.81
2023-02-15T17:14:16.421Z,102057.22
2023-02-15T17:16:50.274Z,102056.16
2023-02-15T17:19:24.244Z,102064.56
2023-02-15T17:21:55.925Z,102067.19
2023-02-15T17:24:34.747Z,102070.94
2023-02-15T17:27:07.349Z,102071.16
2023-02-15T17:29:39.483Z,102068.31
2023-02-15T17:32:18.175Z,102065.13
2023-02-15T17:34:52.360Z,102065.22
2023-02-15T17:37:29.964Z,102077.56
2023-02-15T17:40:00.472Z,102071.06
2023-02-15T17:42:29.228Z,102066.03
2023-02-15T17:44:57.797Z,102075.75
2023-02-15T17:47:30.105Z,102074.25
2023-02-15T17:50:01.289Z,102078.00
2023-02-15T17:52:31.643Z,102077.31
2023-02-15T17:55:18.240Z,102076.00
2023-02-15T17:57:46.846Z,102087.84
2023-02-15T18:00:34.546Z,102075.69
2023-02-15T18:03:20.806Z,102078.69
2023-02-15T18:06:08.118Z,102085.88
2023-02-15T18:08:53.862Z,102080.78
2023-02-15T18:11:40.795Z,102086.69
2023-02-15T18:14:10.854Z,102085.09
2023-02-15T18:16:43.336Z,102083.19
2023-02-15T18:19:17.534Z,102086.56
2023-02-15T18:21:48.519Z,102094.22
2023-02-15T18:24:19.197Z,102091.78
2023-02-15T18:26:47.906Z,102088.22
2023-02-15T18:29:16.511Z,102087.13
2023-02-15T18:31:47.219Z,102101.44
2023-02-15T18:34:25.721Z,102085.13
2023-02-15T18:36:56.523Z,102086.31
2023-02-15T18:39:28.697Z,102080.13
2023-02-15T18:41:57.390Z,102073.25
2023-02-15T18:44:26.996Z,102079.97
2023-02-15T18:46:55.572Z,102071.06
2023-02-15T18:49:24.133Z,102074.63
2023-02-15T18:51:54.319Z,102082.19
2023-02-15T18:54:26.004Z,102072.00
2023-02-15T18:56:57.326Z,102081.44
2023-02-15T18:59:27.414Z,102077.97
2023-02-15T19:01:56.573Z,102089.59
2023-02-15T19:04:26.018Z,102086.50
2023-02-15T19:06:56.578Z,102078.59
2023-02-15T19:09:27.866Z,102078.22
2023-02-15T19:11:57.666Z,102079.38
2023-02-15T19:14:29.087Z,102084.88
2023-02-15T19:16:58.247Z,102084.94
2023-02-15T19:19:27.938Z,102090.75
2023-02-15T19:21:58.037Z,102090.03
2023-02-15T19:24:33.688Z,102091.06
2023-02-15T19:27:02.702Z,102095.28
2023-02-15T19:29:32.403Z,102094.53
2023-02-15T19:32:01.128Z,102093.22
2023-02-15T19:34:29.889Z,102104.97
2023-02-15T19:37:00.179Z,102100.69
2023-02-15T19:39:32.058Z,102102.13
2023-02-15T19:42:00.730Z,102100.50
2023-02-15T19:44:29.279Z,102096.88
2023-02-15T19:46:58.480Z,102099.53
2023-02-15T19:49:27.125Z,102106.53
2023-02-15T19:51:55.941Z,102101.56
2023-02-15T19:54:35.254Z,102098.97
2023-02-15T19:57:03.854Z,102097.72
2023-02-15T19:59:34.133Z,102101.78
2023-02-15T20:02:02.740Z,102090.84
2023-02-15T20:04:31.329Z,102095.97
2023-02-15T20:07:02.829Z,102098.56
2023-02-15T20:09:37.672Z,102094.53
2023-02-15T20:12:12.675Z,102104.63
2023-02-15T20:14:42.653Z,102110.34
2023-02-15T20:17:11.228Z,102115.56
2023-02-15T20:19:41.575Z,102120.91
2023-02-15T20:22:20.697Z,102117.78
2023-02-15T20:24:51.480Z,102113.03
2023-02-15T20:27:21.198Z,102117.94
2023-02-15T20:29:50.531Z,102117.09
2023-02-15T20:32:19.278Z,102121.53
2023-02-15T20:34:47.894Z,102128.13
2023-02-15T20:37:23.241Z,102125.44
2023-02-15T20:39:53.917Z,102125.53
2023-02-15T20:42:22.538Z,102123.59
2023-02-15T20:44:51.091Z,102126.06
2023-02-15T20:47:19.793Z,102135.34
2023-02-15T20:49:48.343Z,102136.88
2023-02-15T20:52:21.257Z,102129.94
2023-02-15T20:54:49.878Z,102136.78
2023-02-15T20:57:19.876Z,102133.25
2023-02-15T20:59:48.421Z,102135.25
2023-02-15T21:02:20.251Z,102136.13
2023-02-15T21:04:48.862Z,102134.00
2023-02-15T21:07:18.528Z,102148.94
2023-02-15T21:09:47.815Z,102155.59
2023-02-15T21:12:18.777Z,102151.03
2023-02-15T21:14:49.167Z,102151.78
2023-02-15T21:17:18.636Z,102142.97
2023-02-15T21:19:47.304Z,102144.19
2023-02-15T21:22:17.143Z,102143.25
2023-02-15T21:24:50.525Z,102140.88
2023-02-15T21:27:19.513Z,102150.56
2023-02-15T21:29:49.476Z,102140.97
2023-02-15T21:32:18.886Z,102139.84
2023-02-15T21:34:47.624Z,102134.59
2023-02-15T21:37:31.418Z,102136.19
2023-02-15T21:40:00.367Z,102140.69
2023-02-15T21:42:47.194Z,102132.97
2023-02-15T21:45:36.571Z,102133.53
2023-02-15T21:48:05.230Z,102146.38
2023-02-15T21:50:53.122Z,102130.25
2023-02-15T21:53:24.530Z,102125.50
2023-02-15T21:55:55.879Z,102120.44
2023-02-15T21:58:27.087Z,102120.00
2023-02-15T22:00:58.185Z,102125.59
2023-02-15T22:03:28.505Z,102118.66
2023-02-15T22:05:57.272Z,102120.84
2023-02-15T22:08:26.182Z,102131.06
2023-02-15T22:10:56.168Z,102125.50
2023-02-15T22:13:29.298Z,102122.72
2023-02-15T22:15:59.646Z,102118.28
2023-02-15T22:18:33.376Z,102108.78
2023-02-15T22:21:04.416Z,102118.72
2023-02-15T22:23:33.362Z,102131.53
2023-02-15T22:26:07.586Z,102130.56
2023-02-15T22:28:39.142Z,102128.66
2023-02-15T22:31:15.087Z,102134.03
2023-02-15T22:33:44.817Z,102123.75
2023-02-15T22:36:24.292Z,102131.94
2023-02-15T22:38:53.340Z,102128.09
2023-02-15T22:41:23.577Z,102136.41
2023-02-15T22:43:53.070Z,102132.00
2023-02-15T22:46:25.093Z,102123.47
2023-02-15T22:48:53.794Z,102129.19
2023-02-15T22:51:24.905Z,102122.06
2023-02-15T22:53:53.957Z,102114.00
2023-02-15T22:56:27.221Z,102128.78
2023-02-15T22:59:04.291Z,102137.25
2023-02-15T23:01:36.144Z,102128.50
2023-02-15T23:04:05.469Z,102133.34
2023-02-15T23:06:35.143Z,102132.22
2023-02-15T23:09:03.884Z,102131.19
2023-02-15T23:11:32.500Z,102129.56
2023-02-15T23:14:03.071Z,102125.22
2023-02-15T23:16:34.764Z,102124.88
2023-02-15T23:19:03.424Z,102119.22
2023-02-15T23:21:34.413Z,102118.78
2023-02-15T23:24:16.647Z,102125.44
2023-02-15T23:26:45.188Z,102127.41
2023-02-15T23:29:16.334Z,102131.25
2023-02-15T23:31:48.279Z,102123.28
2023-02-15T23:34:20.213Z,102124.94
2023-02-15T23:36:49.335Z,102124.81
2023-02-15T23:39:36.935Z,102131.88
2023-02-15T23:42:07.527Z,102121.66
2023-02-15T23:44:36.202Z,102120.34
2023-02-15T23:47:07.137Z,102124.41
2023-02-15T23:49:35.746Z,102124.94
2023-02-15T23:52:07.115Z,102115.88
2023-02-15T23:54:35.716Z,102120.72
2023-02-15T23:57:04.820Z,102122.25
2023-02-15T23:59:34.289Z,102114.56
